createdAt,value
2022-09-11T00:00:53.019Z,19.14
2022-09-11T00:03:22.258Z,19.12
2022-09-11T00:05:49.995Z,19.11
2022-09-11T00:08:19.724Z,19.09
2022-09-11T00:10:49.292Z,19.09
2022-09-11T00:13:21.316Z,19.05
2022-09-11T00:15:51.274Z,19.03
2022-09-11T00:18:22.354Z,19.04
2022-09-11T00:20:51.507Z,19.10
2022-09-11T00:23:19.571Z,19.12
2022-09-11T00:25:49.552Z,19.10
2022-09-11T00:28:20.205Z,19.12
2022-09-11T00:30:48.676Z,19.17
2022-09-11T00:33:16.928Z,19.17
2022-09-11T00:35:54.519Z,19.20
2022-09-11T00:38:22.115Z,19.21
2022-09-11T00:40:51.805Z,19.22
2022-09-11T00:43:19.873Z,19.24
2022-09-11T00:45:54.472Z,19.27
2022-09-11T00:48:26.334Z,19.27
2022-09-11T00:50:55.721Z,19.31
2022-09-11T00:53:26.286Z,19.31
2022-09-11T00:55:59.383Z,19.27
2022-09-11T00:58:31.262Z,19.26
2022-09-11T01:00:59.256Z,19.27
2022-09-11T01:03:27.967Z,19.27
2022-09-11T01:05:56.069Z,19.27
2022-09-11T01:08:23.733Z,19.28
2022-09-11T01:11:03.308Z,19.30
2022-09-11T01:13:37.611Z,19.29
2022-09-11T01:16:14.022Z,19.30
2022-09-11T01:18:50.684Z,19.30
2022-09-11T01:21:52.538Z,19.28
2022-09-11T01:24:52.414Z,19.31
2022-09-11T01:27:39.789Z,19.29
2022-09-11T01:30:11.966Z,19.29
2022-09-11T01:32:50.818Z,19.27
2022-09-11T01:35:27.219Z,19.26
2022-09-11T01:37:58.217Z,19.25
2022-09-11T01:40:29.543Z,19.28
2022-09-11T01:43:07.055Z,19.31
2022-09-11T01:45:37.197Z,19.29
2022-09-11T01:48:08.939Z,19.28
2022-09-11T01:50:40.937Z,19.32
2022-09-11T01:53:12.837Z,19.34
2022-09-11T01:55:44.147Z,19.35
2022-09-11T01:58:17.446Z,19.34
2022-09-11T02:00:49.784Z,19.36
2022-09-11T02:03:22.537Z,19.36
2022-09-11T02:05:56.302Z,19.33
2022-09-11T02:08:28.821Z,19.32
2022-09-11T02:11:03.499Z,19.30
2022-09-11T02:13:38.306Z,19.28
2022-09-11T02:16:10.167Z,19.30
2022-09-11T02:18:45.991Z,19.30
2022-09-11T02:21:13.790Z,19.26
2022-09-11T02:23:42.351Z,19.24
2022-09-11T02:26:12.038Z,19.25
2022-09-11T02:28:41.333Z,19.28
2022-09-11T02:31:09.024Z,19.29
2022-09-11T02:33:38.572Z,19.28
2022-09-11T02:36:32.798Z,19.28
2022-09-11T02:39:15.394Z,19.30
2022-09-11T02:41:52.829Z,19.27
2022-09-11T02:44:34.958Z,19.27
2022-09-11T02:47:12.194Z,19.26
2022-09-11T02:49:51.505Z,19.27
2022-09-11T02:52:30.698Z,19.26
2022-09-11T02:55:08.015Z,19.22
2022-09-11T02:57:42.511Z,19.18
2022-09-11T03:00:13.413Z,19.17
2022-09-11T03:02:44.147Z,19.18
2022-09-11T03:05:13.445Z,19.21
2022-09-11T03:07:41.009Z,19.22
2022-09-11T03:10:11.509Z,19.21
2022-09-11T03:12:39.777Z,19.19
2022-09-11T03:15:09.557Z,19.17
2022-09-11T03:17:38.618Z,19.17
2022-09-11T03:20:07.272Z,19.16
2022-09-11T03:22:34.871Z,19.14
2022-09-11T03:25:02.885Z,19.14
2022-09-11T03:27:30.458Z,19.10
2022-09-11T03:29:58.595Z,19.08
2022-09-11T03:32:26.202Z,19.11
2022-09-11T03:34:55.145Z,19.12
2022-09-11T03:37:22.732Z,19.11
2022-09-11T03:39:50.355Z,19.10
2022-09-11T03:42:17.959Z,19.09
2022-09-11T03:44:45.641Z,19.11
2022-09-11T03:47:13.904Z,19.10
2022-09-11T03:49:41.512Z,19.11
2022-09-11T03:52:10.437Z,19.14
2022-09-11T03:54:39.324Z,19.14
2022-09-11T03:57:06.981Z,19.13
2022-09-11T03:59:34.608Z,19.13
2022-09-11T04:02:02.249Z,19.17
2022-09-11T04:04:29.868Z,19.21
2022-09-11T04:06:57.455Z,19.22
2022-09-11T04:09:26.778Z,19.18
2022-09-11T04:11:54.425Z,19.17
2022-09-11T04:14:22.772Z,19.17
2022-09-11T04:16:50.497Z,19.20
2022-09-11T04:19:18.765Z,19.18
2022-09-11T04:21:46.398Z,19.19
2022-09-11T04:24:15.297Z,19.16
2022-09-11T04:26:44.194Z,19.17
2022-09-11T04:29:11.793Z,19.17
2022-09-11T04:31:41.165Z,19.14
2022-09-11T04:34:09.521Z,19.13
2022-09-11T04:36:37.198Z,19.12
2022-09-11T04:39:05.115Z,19.09
2022-09-11T04:41:32.695Z,19.07
2022-09-11T04:44:05.172Z,19.05
2022-09-11T04:46:34.386Z,19.01
2022-09-11T04:49:02.168Z,19.00
2022-09-11T04:51:32.160Z,18.90
2022-09-11T04:54:00.801Z,18.88
2022-09-11T04:56:30.072Z,18.88
2022-09-11T04:59:02.318Z,18.87
2022-09-11T05:01:32.109Z,18.87
2022-09-11T05:04:01.739Z,18.88
2022-09-11T05:06:30.350Z,18.94
2022-09-11T05:09:02.408Z,18.98
2022-09-11T05:11:30.478Z,18.99
2022-09-11T05:13:59.852Z,19.03
2022-09-11T05:16:30.397Z,19.05
2022-09-11T05:18:59.058Z,19.03
2022-09-11T05:21:28.282Z,19.03
2022-09-11T05:23:58.597Z,19.00
2022-09-11T05:26:27.961Z,18.97
2022-09-11T05:28:56.355Z,18.94
2022-09-11T05:31:26.351Z,18.89
2022-09-11T05:33:57.008Z,18.83
2022-09-11T05:36:25.117Z,18.83
2022-09-11T05:38:53.720Z,18.72
2022-09-11T05:41:21.730Z,18.68
2022-09-11T05:43:49.691Z,18.62
2022-09-11T05:46:19.005Z,18.63
2022-09-11T05:48:46.998Z,18.64
2022-09-11T05:51:18.475Z,18.65
2022-09-11T05:53:47.054Z,18.71
2022-09-11T05:56:16.798Z,18.77
2022-09-11T05:58:46.125Z,18.80
2022-09-11T06:01:15.156Z,18.82
2022-09-11T06:03:43.559Z,18.88
2022-09-11T06:06:13.719Z,18.90
2022-09-11T06:08:44.068Z,18.99
2022-09-11T06:11:13.767Z,19.09
2022-09-11T06:13:43.121Z,19.14
2022-09-11T06:16:15.963Z,19.26
2022-09-11T06:18:48.979Z,19.26
2022-09-11T06:21:20.045Z,19.30
2022-09-11T06:23:50.130Z,19.30
2022-09-11T06:26:21.266Z,19.34
2022-09-11T06:28:50.746Z,19.36
2022-09-11T06:31:20.146Z,19.39
2022-09-11T06:33:48.353Z,19.40
2022-09-11T06:36:18.336Z,19.45
2022-09-11T06:38:46.556Z,19.48
2022-09-11T06:41:17.113Z,19.56
2022-09-11T06:43:45.286Z,19.58
2022-09-11T06:46:14.877Z,19.62
2022-09-11T06:48:43.403Z,19.68
2022-09-11T06:51:12.888Z,19.74
2022-09-11T06:53:41.452Z,19.77
2022-09-11T06:56:12.289Z,19.83
2022-09-11T06:58:41.687Z,19.85
2022-09-11T07:01:12.214Z,19.91
2022-09-11T07:03:45.348Z,20.00
2022-09-11T07:06:14.268Z,20.04
2022-09-11T07:08:42.083Z,20.11
2022-09-11T07:11:11.529Z,20.16
2022-09-11T07:13:39.663Z,20.20
2022-09-11T07:16:12.663Z,20.29
2022-09-11T07:18:42.119Z,20.33
2022-09-11T07:21:12.216Z,20.37
2022-09-11T07:23:40.968Z,20.43
2022-09-11T07:26:11.579Z,20.47
2022-09-11T07:28:39.807Z,20.51
2022-09-11T07:31:11.727Z,20.54
2022-09-11T07:33:42.696Z,20.58
2022-09-11T07:36:11.813Z,20.62
2022-09-11T07:38:40.991Z,20.67
2022-09-11T07:41:09.775Z,20.70
2022-09-11T07:43:37.824Z,20.73
2022-09-11T07:46:07.182Z,20.76
2022-09-11T07:48:37.099Z,20.76
2022-09-11T07:51:07.217Z,20.75
2022-09-11T07:53:35.784Z,20.75
2022-09-11T07:56:04.759Z,20.74
2022-09-11T07:58:36.413Z,20.74
2022-09-11T08:01:05.298Z,20.75
2022-09-11T08:03:34.314Z,20.75
2022-09-11T08:06:05.505Z,20.81
2022-09-11T08:08:33.240Z,20.82
2022-09-11T08:11:05.130Z,20.85
2022-09-11T08:13:33.303Z,20.88
2022-09-11T08:16:01.332Z,20.93
2022-09-11T08:18:29.251Z,21.00
2022-09-11T08:21:04.428Z,21.16
2022-09-11T08:23:33.256Z,21.28
2022-09-11T08:26:06.407Z,21.43
2022-09-11T08:28:35.253Z,21.58
2022-09-11T08:31:02.964Z,21.70
2022-09-11T08:33:31.032Z,21.57
2022-09-11T08:35:59.536Z,21.38
2022-09-11T08:38:29.300Z,21.24
2022-09-11T08:40:59.942Z,21.12
2022-09-11T08:43:32.577Z,21.00
2022-09-11T08:46:04.971Z,20.98
2022-09-11T08:48:41.235Z,21.21
2022-09-11T08:51:10.937Z,21.31
2022-09-11T08:53:40.044Z,21.33
2022-09-11T08:56:12.798Z,21.46
2022-09-11T08:58:49.466Z,21.82
2022-09-11T09:01:25.703Z,21.75
2022-09-11T09:04:11.085Z,21.54
2022-09-11T09:06:55.209Z,21.37
2022-09-11T09:09:35.257Z,21.58
2022-09-11T09:12:09.629Z,24.68
2022-09-11T09:15:13.738Z,27.55
2022-09-11T09:17:45.562Z,29.81
2022-09-11T09:20:21.255Z,28.65
2022-09-11T09:22:52.296Z,28.43
2022-09-11T09:25:23.534Z,27.98
2022-09-11T09:27:55.989Z,27.55
2022-09-11T09:30:27.338Z,26.52
2022-09-11T09:33:01.354Z,26.83
2022-09-11T09:35:39.518Z,28.64
2022-09-11T09:38:12.866Z,29.63
2022-09-11T09:40:50.091Z,28.86
2022-09-11T09:43:30.308Z,27.49
2022-09-11T09:46:11.379Z,26.29
2022-09-11T09:48:40.888Z,25.19
2022-09-11T09:51:13.306Z,24.59
2022-09-11T09:53:44.406Z,24.05
2022-09-11T09:56:17.289Z,23.56
2022-09-11T09:58:55.568Z,23.15
2022-09-11T10:01:46.820Z,22.75
2022-09-11T10:04:17.908Z,22.46
2022-09-11T10:06:47.388Z,22.37
2022-09-11T10:09:26.844Z,22.48
2022-09-11T10:12:02.932Z,22.61
2022-09-11T10:17:23.489Z,23.27
2022-09-11T10:19:54.744Z,23.10
2022-09-11T10:22:25.542Z,22.88
2022-09-11T10:25:00.497Z,22.71
2022-09-11T10:27:31.475Z,22.64
2022-09-11T10:30:00.526Z,22.66
2022-09-11T10:32:29.151Z,22.65
2022-09-11T10:34:57.717Z,22.58
2022-09-11T10:37:27.543Z,22.48
2022-09-11T10:40:08.986Z,22.31
2022-09-11T10:42:38.620Z,22.19
2022-09-11T10:45:13.814Z,22.15
2022-09-11T10:47:41.982Z,22.17
2022-09-11T10:50:22.412Z,22.29
2022-09-11T10:52:59.911Z,22.35
2022-09-11T10:55:31.744Z,22.48
2022-09-11T10:58:06.992Z,22.84
2022-09-11T11:00:35.814Z,23.13
2022-09-11T11:03:06.804Z,23.19
2022-09-11T11:05:46.236Z,23.20
2022-09-11T11:08:34.704Z,23.16
2022-09-11T11:11:17.996Z,23.24
2022-09-11T11:14:13.242Z,23.18
2022-09-11T11:16:52.434Z,23.18
2022-09-11T11:19:38.783Z,23.17
2022-09-11T11:22:14.816Z,23.26
2022-09-11T11:24:58.094Z,23.26
2022-09-11T11:27:40.598Z,23.40
2022-09-11T11:30:17.737Z,23.40
2022-09-11T11:33:03.954Z,23.24
2022-09-11T11:35:37.228Z,23.17
2022-09-11T11:38:12.041Z,23.05
2022-09-11T11:40:48.125Z,22.86
2022-09-11T11:43:18.418Z,22.79
2022-09-11T11:45:52.110Z,23.97
2022-09-11T11:48:25.296Z,26.04
2022-09-11T11:50:55.432Z,27.87
2022-09-11T11:53:26.681Z,29.52
2022-09-11T11:56:03.852Z,30.78
2022-09-11T11:58:42.938Z,30.74
2022-09-11T12:01:20.126Z,29.99
2022-09-11T12:03:56.504Z,29.53
2022-09-11T12:06:24.300Z,28.82
2022-09-11T12:08:51.927Z,28.06
2022-09-11T12:11:29.750Z,27.66
2022-09-11T12:13:58.880Z,27.45
2022-09-11T12:16:31.745Z,27.65
2022-09-11T12:19:08.486Z,27.47
2022-09-11T12:21:41.397Z,27.37
2022-09-11T12:24:21.131Z,26.96
2022-09-11T12:27:11.756Z,26.23
2022-09-11T12:29:54.206Z,25.53
2022-09-11T12:32:42.898Z,25.17
2022-09-11T12:35:20.386Z,24.96
2022-09-11T12:37:55.734Z,24.69
2022-09-11T12:40:34.113Z,24.51
2022-09-11T12:43:27.384Z,24.51
2022-09-11T12:45:56.822Z,24.50
2022-09-11T12:48:38.894Z,24.31
2022-09-11T12:51:08.354Z,24.06
2022-09-11T12:53:38.704Z,23.86
2022-09-11T12:56:08.423Z,23.68
2022-09-11T12:58:40.612Z,23.50
2022-09-11T13:01:23.732Z,23.37
2022-09-11T13:04:00.919Z,23.27
2022-09-11T13:06:41.841Z,23.19
2022-09-11T13:09:20.179Z,23.17
2022-09-11T13:11:50.139Z,23.14
2022-09-11T13:14:47.885Z,23.21
2022-09-11T13:17:25.679Z,23.20
2022-09-11T13:20:10.505Z,23.18
2022-09-11T13:22:39.318Z,23.16
2022-09-11T13:25:12.357Z,23.21
2022-09-11T13:27:42.551Z,23.19
2022-09-11T13:30:14.493Z,23.17
2022-09-11T13:32:42.991Z,23.12
2022-09-11T13:35:16.947Z,23.17
2022-09-11T13:37:47.194Z,23.12
2022-09-11T13:40:20.761Z,23.07
2022-09-11T13:42:49.829Z,23.05
2022-09-11T13:45:20.160Z,23.01
2022-09-11T13:47:47.864Z,22.97
2022-09-11T13:50:20.806Z,22.96
2022-09-11T13:52:50.255Z,23.06
2022-09-11T13:55:20.240Z,23.08
2022-09-11T13:57:57.434Z,23.09
2022-09-11T14:00:39.406Z,23.07
2022-09-11T14:03:07.808Z,23.03
2022-09-11T14:05:36.751Z,23.02
2022-09-11T14:08:07.573Z,22.95
2022-09-11T14:10:46.958Z,22.88
2022-09-11T14:13:18.583Z,22.81
2022-09-11T14:15:51.876Z,22.81
2022-09-11T14:18:29.574Z,22.77
2022-09-11T14:21:01.264Z,22.76
2022-09-11T14:23:31.238Z,22.78
2022-09-11T14:26:07.756Z,22.78
2022-09-11T14:28:43.028Z,22.81
2022-09-11T14:31:14.321Z,22.85
2022-09-11T14:33:42.333Z,22.86
2022-09-11T14:36:19.000Z,22.97
2022-09-11T14:38:48.121Z,23.06
2022-09-11T14:41:16.680Z,23.08
2022-09-11T14:43:47.753Z,23.16
2022-09-11T14:46:17.047Z,23.15
2022-09-11T14:48:44.805Z,23.13
2022-09-11T14:51:13.951Z,23.21
2022-09-11T14:53:43.917Z,23.24
2022-09-11T14:56:11.693Z,23.30
2022-09-11T14:58:39.295Z,23.24
2022-09-11T15:01:07.179Z,23.28
2022-09-11T15:03:35.026Z,23.20
2022-09-11T15:06:02.711Z,23.15
2022-09-11T15:08:31.628Z,23.08
2022-09-11T15:10:59.259Z,23.00
2022-09-11T15:13:27.219Z,22.92
2022-09-11T15:15:56.059Z,22.82
2022-09-11T15:18:25.545Z,22.76
2022-09-11T15:20:54.818Z,22.71
2022-09-11T15:23:22.381Z,22.69
2022-09-11T15:25:57.361Z,22.62
2022-09-11T15:28:24.913Z,22.54
2022-09-11T15:30:59.862Z,22.48
2022-09-11T15:33:27.918Z,22.43
2022-09-11T15:35:57.083Z,22.38
2022-09-11T15:38:25.035Z,22.33
2022-09-11T15:40:56.796Z,22.31
2022-09-11T15:43:24.663Z,22.28
2022-09-11T15:45:52.583Z,22.23
2022-09-11T15:48:21.295Z,22.21
2022-09-11T15:51:00.064Z,22.20
2022-09-11T15:53:27.986Z,22.21
2022-09-11T15:56:05.104Z,22.26
2022-09-11T15:58:34.109Z,22.19
2022-09-11T16:01:02.797Z,22.21
2022-09-11T16:03:31.209Z,22.21
2022-09-11T16:06:00.858Z,22.25
2022-09-11T16:08:28.880Z,22.26
2022-09-11T16:10:56.485Z,22.25
2022-09-11T16:13:25.460Z,22.24
2022-09-11T16:16:03.583Z,22.23
2022-09-11T16:18:31.612Z,22.23
2022-09-11T16:20:59.684Z,22.22
2022-09-11T16:23:28.065Z,22.22
2022-09-11T16:25:55.781Z,22.24
2022-09-11T16:28:25.182Z,22.23
2022-09-11T16:30:53.846Z,22.24
2022-09-11T16:33:22.897Z,22.27
2022-09-11T16:36:00.040Z,22.25
2022-09-11T16:38:29.018Z,22.25
2022-09-11T16:41:09.316Z,22.25
2022-09-11T16:43:38.555Z,22.29
2022-09-11T16:46:08.559Z,22.27
2022-09-11T16:48:36.980Z,22.23
2022-09-11T16:51:05.677Z,22.22
2022-09-11T16:53:35.218Z,22.19
2022-09-11T16:56:05.393Z,22.19
2022-09-11T16:58:34.114Z,22.17
2022-09-11T17:01:06.342Z,22.13
2022-09-11T17:03:36.216Z,22.11
2022-09-11T17:06:08.033Z,22.11
2022-09-11T17:08:39.148Z,22.06
2022-09-11T17:11:09.689Z,22.04
2022-09-11T17:13:37.629Z,21.98
2022-09-11T17:16:11.564Z,21.97
2022-09-11T17:18:47.259Z,21.92
2022-09-11T17:21:15.351Z,21.88
2022-09-11T17:23:43.107Z,21.86
2022-09-11T17:26:12.774Z,21.84
2022-09-11T17:28:41.791Z,21.81
2022-09-11T17:31:13.465Z,21.77
2022-09-11T17:33:41.575Z,21.76
2022-09-11T17:36:10.943Z,21.73
2022-09-11T17:38:40.207Z,21.73
2022-09-11T17:41:09.241Z,21.70
2022-09-11T17:43:37.666Z,21.65
2022-09-11T17:46:07.924Z,21.63
2022-09-11T17:48:37.541Z,21.62
2022-09-11T17:51:07.496Z,21.57
2022-09-11T17:53:38.524Z,21.52
2022-09-11T17:56:09.680Z,21.48
2022-09-11T17:58:37.468Z,21.44
2022-09-11T18:01:06.096Z,21.42
2022-09-11T18:03:35.223Z,21.39
2022-09-11T18:06:06.674Z,21.38
2022-09-11T18:08:34.402Z,21.36
2022-09-11T18:11:03.055Z,21.31
2022-09-11T18:13:32.330Z,21.29
2022-09-11T18:15:59.893Z,21.28
2022-09-11T18:18:27.882Z,21.28
2022-09-11T18:20:55.855Z,21.28
2022-09-11T18:23:25.275Z,21.27
2022-09-11T18:25:52.922Z,21.25
2022-09-11T18:28:20.750Z,21.26
2022-09-11T18:30:49.824Z,21.26
2022-09-11T18:33:17.584Z,21.25
2022-09-11T18:35:46.561Z,21.24
2022-09-11T18:38:14.134Z,21.21
2022-09-11T18:40:43.155Z,21.22
2022-09-11T18:43:10.749Z,21.21
2022-09-11T18:45:38.312Z,21.18
2022-09-11T18:48:06.202Z,21.10
2022-09-11T18:50:36.499Z,21.01
2022-09-11T18:53:04.131Z,20.95
2022-09-11T18:55:31.722Z,20.95
2022-09-11T18:58:00.640Z,20.98
2022-09-11T19:00:29.624Z,20.95
2022-09-11T19:02:57.319Z,20.97
2022-09-11T19:05:26.216Z,20.99
2022-09-11T19:07:55.121Z,20.99
2022-09-11T19:10:22.773Z,20.98
2022-09-11T19:12:50.342Z,20.95
2022-09-11T19:15:19.483Z,20.95
2022-09-11T19:17:47.987Z,20.94
2022-09-11T19:20:17.313Z,20.93
2022-09-11T19:22:44.891Z,20.91
2022-09-11T19:25:12.551Z,20.89
2022-09-11T19:27:40.155Z,20.87
2022-09-11T19:30:08.637Z,20.83
2022-09-11T19:32:37.615Z,20.79
2022-09-11T19:35:06.113Z,20.76
2022-09-11T19:37:33.962Z,20.73
2022-09-11T19:40:01.619Z,20.72
2022-09-11T19:42:29.229Z,20.72
2022-09-11T19:44:56.797Z,20.70
2022-09-11T19:47:25.016Z,20.65
2022-09-11T19:49:54.031Z,20.63
2022-09-11T19:52:21.613Z,20.62
2022-09-11T19:54:49.277Z,20.63
2022-09-11T19:57:19.598Z,20.53
2022-09-11T19:59:47.176Z,20.42
2022-09-11T20:02:14.926Z,20.39
2022-09-11T20:04:42.524Z,20.35
2022-09-11T20:07:11.666Z,20.27
2022-09-11T20:09:40.256Z,20.10
2022-09-11T20:12:08.081Z,19.97
2022-09-11T20:14:38.384Z,19.92
2022-09-11T20:17:10.169Z,19.95
2022-09-11T20:19:37.791Z,20.02
2022-09-11T20:22:05.474Z,20.09
2022-09-11T20:24:34.445Z,20.07
2022-09-11T20:27:02.010Z,20.06
2022-09-11T20:29:29.602Z,20.10
2022-09-11T20:31:57.209Z,20.14
2022-09-11T20:34:27.892Z,20.13
2022-09-11T20:36:56.580Z,20.03
2022-09-11T20:39:24.300Z,20.00
2022-09-11T20:41:53.263Z,20.02
2022-09-11T20:44:20.814Z,20.00
2022-09-11T20:46:48.443Z,19.99
2022-09-11T20:49:16.146Z,20.01
2022-09-11T20:51:44.369Z,20.05
2022-09-11T20:54:12.082Z,20.04
2022-09-11T20:56:39.729Z,20.00
2022-09-11T20:59:09.021Z,19.96
2022-09-11T21:01:36.801Z,20.00
2022-09-11T21:04:05.213Z,20.02
2022-09-11T21:06:35.032Z,19.96
2022-09-11T21:09:05.769Z,19.86
2022-09-11T21:11:34.158Z,19.80
2022-09-11T21:14:02.053Z,19.83
2022-09-11T21:16:31.272Z,19.83
2022-09-11T21:19:01.936Z,19.84
2022-09-11T21:21:30.576Z,19.67
2022-09-11T21:23:59.339Z,19.50
2022-09-11T21:26:28.866Z,19.46
2022-09-11T21:28:57.997Z,19.47
2022-09-11T21:31:26.802Z,19.49
2022-09-11T21:33:55.858Z,19.51
2022-09-11T21:36:23.842Z,19.55
2022-09-11T21:38:51.510Z,19.52
2022-09-11T21:41:19.424Z,19.54
2022-09-11T21:43:47.505Z,19.52
2022-09-11T21:46:15.564Z,19.47
2022-09-11T21:48:43.285Z,19.46
2022-09-11T21:51:14.571Z,19.41
2022-09-11T21:53:44.122Z,19.40
2022-09-11T21:56:18.192Z,19.34
2022-09-11T21:58:46.011Z,19.32
2022-09-11T22:01:14.298Z,19.32
2022-09-11T22:03:42.010Z,19.36
2022-09-11T22:06:12.608Z,19.36
2022-09-11T22:08:42.728Z,19.30
2022-09-11T22:11:11.278Z,19.26
2022-09-11T22:13:39.547Z,19.27
2022-09-11T22:16:09.383Z,19.18
2022-09-11T22:18:37.623Z,19.15
2022-09-11T22:21:05.840Z,19.16
2022-09-11T22:23:35.139Z,19.16
2022-09-11T22:26:04.987Z,19.15
2022-09-11T22:28:32.639Z,19.14
2022-09-11T22:31:00.547Z,19.20
2022-09-11T22:33:28.152Z,19.18
2022-09-11T22:35:55.773Z,19.10
2022-09-11T22:38:23.814Z,19.09
2022-09-11T22:40:55.558Z,19.02
2022-09-11T22:43:23.230Z,19.04
2022-09-11T22:45:52.091Z,18.99
2022-09-11T22:48:20.063Z,18.93
2022-09-11T22:50:47.713Z,18.93
2022-09-11T22:53:15.547Z,18.85
2022-09-11T22:55:45.101Z,18.84
2022-09-11T22:58:14.640Z,18.78
2022-09-11T23:00:43.229Z,18.80
2022-09-11T23:03:11.214Z,18.77
2022-09-11T23:05:56.583Z,18.81
2022-09-11T23:08:28.341Z,18.85
2022-09-11T23:11:00.016Z,18.84
2022-09-11T23:13:29.998Z,18.88
2022-09-11T23:15:57.899Z,18.87
2022-09-11T23:18:26.352Z,18.86
2022-09-11T23:20:54.739Z,18.82
2022-09-11T23:23:22.728Z,18.70
2022-09-11T23:25:50.613Z,18.71
2022-09-11T23:28:18.905Z,18.69
2022-09-11T23:30:47.872Z,18.68
2022-09-11T23:33:15.480Z,18.68
2022-09-11T23:35:43.064Z,18.65
2022-09-11T23:38:10.694Z,18.61
2022-09-11T23:40:38.310Z,18.61
2022-09-11T23:43:05.868Z,18.56
2022-09-11T23:45:33.811Z,18.59
2022-09-11T23:48:03.577Z,18.59
2022-09-11T23:50:31.152Z,18.63
2022-09-11T23:52:58.856Z,18.60
2022-09-11T23:55:26.510Z,18.59
2022-09-11T23:57:55.233Z,18.55
